Time;durP1;ratioP1;P1;durP2;ratioP2;P2;SDS_P1;SDS_P2;PMS_P1;PMS_P2;Temp;Humidity;BMP_temperature;BMP_pressure;BME280_temperature;BME280_humidity;BME280_pressure;Samples;Min_cycle;Max_cycle;Signal;HPM_P1;HPM_P2
2023/03/03 00:01:20;;;;;;;22.73;15.70;;;2.00;99.90;;;;;;5059973;28;20519;-76
2023/03/03 00:03:45;;;;;;;22.70;14.80;;;2.00;99.90;;;;;;5059886;28;20416;-71
2023/03/03 00:06:13;;;;;;;23.90;16.23;;;2.00;99.90;;;;;;5057498;28;20543;-72
2023/03/03 00:08:39;;;;;;;20.73;16.20;;;2.00;99.90;;;;;;5058480;28;20236;-72
2023/03/03 00:11:06;;;;;;;19.63;14.53;;;2.00;99.90;;;;;;5059699;28;20409;-76
2023/03/03 00:13:39;;;;;;;19.47;14.33;;;1.90;99.90;;;;;;5059732;28;20805;-76
2023/03/03 00:16:21;;;;;;;19.77;13.70;;;1.90;99.90;;;;;;5045499;28;20461;-71
2023/03/03 00:18:47;;;;;;;26.20;14.80;;;1.80;99.90;;;;;;5039706;28;20412;-71
2023/03/03 00:21:39;;;;;;;21.20;14.80;;;1.70;99.90;;;;;;5039597;28;20402;-72
2023/03/03 00:24:18;;;;;;;22.67;14.50;;;1.70;99.90;;;;;;5038789;28;20445;-75
2023/03/03 00:26:47;;;;;;;20.33;13.27;;;1.60;99.90;;;;;;5050733;28;20468;-75
2023/03/03 00:29:36;;;;;;;21.07;15.40;;;1.50;99.90;;;;;;5059657;28;20474;-75
2023/03/03 00:32:14;;;;;;;21.70;15.77;;;1.50;99.90;;;;;;5059470;28;20413;-75
2023/03/03 00:34:41;;;;;;;27.37;15.47;;;1.40;99.90;;;;;;5057481;28;20425;-75
2023/03/03 00:37:24;;;;;;;22.77;13.80;;;1.50;99.90;;;;;;5057692;28;20447;-75
2023/03/03 00:39:49;;;;;;;19.80;14.63;;;1.40;99.90;;;;;;5059416;28;20878;-76
2023/03/03 00:42:17;;;;;;;21.97;14.00;;;1.30;99.90;;;;;;5059374;28;20407;-76
2023/03/03 00:44:57;;;;;;;19.60;14.00;;;1.30;99.90;;;;;;5044626;28;20190;-72
2023/03/03 00:47:34;;;;;;;21.17;13.13;;;1.20;99.90;;;;;;5038076;28;20453;-75
2023/03/03 00:50:06;;;;;;;20.60;14.20;;;1.20;99.90;;;;;;5039309;28;20398;-72
2023/03/03 00:52:49;;;;;;;18.43;14.23;;;1.10;99.90;;;;;;5055073;28;20942;-75
2023/03/03 00:55:15;;;;;;;21.27;14.77;;;1.10;99.90;;;;;;5057413;28;20460;-76
2023/03/03 00:57:40;;;;;;;24.43;14.60;;;1.00;99.90;;;;;;5059342;28;20405;-71
2023/03/03 01:00:07;;;;;;;26.10;14.30;;;1.00;99.90;;;;;;5059219;28;20175;-75
2023/03/03 01:02:32;;;;;;;22.17;13.97;;;1.00;99.90;;;;;;5055228;28;20288;-75
2023/03/03 01:04:58;;;;;;;20.00;14.87;;;0.90;99.90;;;;;;5050148;28;20989;-72
2023/03/03 01:07:24;;;;;;;21.23;15.17;;;0.90;99.90;;;;;;5055275;28;20307;-71
2023/03/03 01:09:50;;;;;;;20.10;12.87;;;0.90;99.90;;;;;;5056130;28;20612;-75
2023/03/03 01:12:15;;;;;;;22.00;13.70;;;0.90;99.90;;;;;;5054995;28;20409;-72
2023/03/03 01:14:41;;;;;;;19.80;13.20;;;0.90;99.90;;;;;;5052696;28;20167;-75
2023/03/03 01:17:08;;;;;;;25.40;15.83;;;0.80;99.90;;;;;;5036042;28;20243;-71
2023/03/03 01:19:34;;;;;;;21.40;15.73;;;0.80;99.90;;;;;;5034407;28;20442;-71
2023/03/03 01:22:00;;;;;;;22.30;13.73;;;0.80;99.90;;;;;;5035983;28;20395;-75
2023/03/03 01:24:25;;;;;;;20.63;13.93;;;0.80;99.90;;;;;;5034905;28;20402;-72
2023/03/03 01:26:51;;;;;;;16.93;14.93;;;0.80;99.90;;;;;;5040555;28;20472;-75
2023/03/03 01:29:17;;;;;;;21.97;14.10;;;0.80;99.90;;;;;;5055744;28;20167;-71
2023/03/03 01:31:42;;;;;;;19.13;12.60;;;0.70;99.90;;;;;;5054629;28;20171;-71
2023/03/03 01:34:08;;;;;;;23.93;14.93;;;0.70;99.90;;;;;;5054211;28;20182;-76
2023/03/03 01:36:35;;;;;;;20.60;13.53;;;0.70;99.90;;;;;;5053735;28;20215;-72
2023/03/03 01:39:01;;;;;;;18.17;13.18;;;0.60;99.90;;;;;;5055779;28;20197;-71
2023/03/03 01:41:29;;;;;;;23.27;14.90;;;0.60;99.90;;;;;;5054427;28;20183;-71
2023/03/03 01:43:55;;;;;;;22.70;14.30;;;0.60;99.90;;;;;;5055367;28;20397;-71
2023/03/03 01:46:53;;;;;;;19.87;13.37;;;0.60;99.90;;;;;;5037939;28;20552;-74
2023/03/03 01:49:41;;;;;;;18.93;13.37;;;0.60;99.90;;;;;;5034607;28;20430;-70
2023/03/03 01:52:22;;;;;;;22.60;13.65;;;0.60;99.90;;;;;;5035209;28;20899;-75
2023/03/03 01:54:53;;;;;;;18.85;13.60;;;0.60;99.90;;;;;;5047642;28;20501;-75
2023/03/03 01:57:27;;;;;;;23.02;14.30;;;0.50;99.90;;;;;;5055273;28;20190;-71
2023/03/03 01:59:54;;;;;;;22.00;13.88;;;0.40;99.90;;;;;;5055207;28;20570;-76
2023/03/03 02:02:20;;;;;;;21.33;13.32;;;0.50;99.90;;;;;;5053994;28;20183;-71
2023/03/03 02:04:46;;;;;;;21.77;14.63;;;0.40;99.90;;;;;;5052809;28;20171;-75
2023/03/03 02:07:15;;;;;;;22.93;14.67;;;0.40;99.90;;;;;;5055078;28;21038;-70
2023/03/03 02:10:02;;;;;;;18.15;12.65;;;0.40;99.90;;;;;;5055128;28;20167;-70
2023/03/03 02:12:33;;;;;;;20.10;13.00;;;0.30;99.90;;;;;;5053988;28;20182;-70
2023/03/03 02:14:58;;;;;;;19.98;12.05;;;0.30;99.90;;;;;;5033834;28;20458;-75
2023/03/03 02:17:24;;;;;;;20.60;13.80;;;0.30;99.90;;;;;;5054822;28;20528;-75
2023/03/03 02:19:50;;;;;;;23.30;13.80;;;0.20;99.90;;;;;;5053741;28;20179;-75
2023/03/03 02:22:23;;;;;;;23.13;14.63;;;0.20;99.90;;;;;;5054729;28;20475;-70
2023/03/03 02:25:01;;;;;;;16.60;14.10;;;0.20;99.90;;;;;;5037460;28;20254;-70
2023/03/03 02:27:30;;;;;;;18.52;11.82;;;0.20;99.90;;;;;;5053282;28;20209;-75
2023/03/03 02:29:57;;;;;;;18.17;13.18;;;0.10;99.90;;;;;;5054560;28;20714;-71
2023/03/03 02:32:23;;;;;;;19.48;13.50;;;0.10;99.90;;;;;;5054478;28;20174;-76
2023/03/03 02:34:52;;;;;;;25.47;14.07;;;0.10;99.90;;;;;;5036823;28;20188;-72
2023/03/03 02:37:19;;;;;;;20.83;12.65;;;0.20;99.90;;;;;;5034514;28;20183;-75
2023/03/03 02:39:45;;;;;;;17.42;14.65;;;0.10;99.90;;;;;;5034532;28;20233;-75
2023/03/03 02:42:14;;;;;;;22.33;12.63;;;0.10;99.90;;;;;;5046090;28;20206;-75
2023/03/03 02:44:40;;;;;;;18.80;12.55;;;0.10;99.90;;;;;;5053320;28;20936;-76
2023/03/03 02:47:06;;;;;;;20.50;14.40;;;0.10;99.90;;;;;;5052935;28;20210;-70
2023/03/03 02:49:34;;;;;;;19.97;13.60;;;0.20;99.90;;;;;;5054443;28;20402;-75
2023/03/03 02:52:01;;;;;;;20.27;14.55;;;0.20;99.90;;;;;;5054205;28;20914;-76
2023/03/03 02:54:31;;;;;;;20.42;13.52;;;0.20;99.90;;;;;;5052339;28;20200;-75
2023/03/03 02:56:58;;;;;;;16.77;12.65;;;0.20;99.90;;;;;;5052689;28;20698;-69
2023/03/03 02:59:24;;;;;;;16.00;11.93;;;0.20;99.90;;;;;;5053879;28;20171;-75
2023/03/03 03:01:52;;;;;;;19.23;14.10;;;0.10;99.90;;;;;;5054066;28;20801;-76
2023/03/03 03:04:21;;;;;;;16.65;12.65;;;0.10;99.90;;;;;;5053318;28;20216;-74
2023/03/03 03:06:47;;;;;;;16.70;12.65;;;0.10;99.90;;;;;;5052918;28;20245;-75
2023/03/03 03:09:14;;;;;;;19.20;11.80;;;0.10;99.90;;;;;;5052993;28;20205;-70
2023/03/03 03:11:40;;;;;;;20.17;12.80;;;0.00;99.90;;;;;;5053888;28;20167;-70
2023/03/03 03:14:07;;;;;;;14.20;11.85;;;0.10;99.90;;;;;;5052769;28;20170;-70
2023/03/03 03:16:33;;;;;;;20.30;13.48;;;0.10;99.90;;;;;;5037823;28;20203;-69
2023/03/03 03:19:00;;;;;;;13.82;10.90;;;0.10;99.90;;;;;;5033691;28;20178;-71
2023/03/03 03:21:26;;;;;;;16.50;11.63;;;0.10;99.90;;;;;;5033742;28;20178;-75
2023/03/03 03:23:52;;;;;;;18.90;12.45;;;0.10;99.90;;;;;;5033763;28;20172;-70
2023/03/03 03:26:19;;;;;;;13.82;11.10;;;0.10;99.90;;;;;;5031520;28;20286;-75
2023/03/03 03:28:46;;;;;;;16.90;12.80;;;0.10;99.90;;;;;;5033737;28;20577;-70
2023/03/03 03:31:13;;;;;;;16.60;11.53;;;0.10;99.90;;;;;;5033622;28;20160;-75
2023/03/03 03:33:39;;;;;;;22.88;13.23;;;0.10;99.90;;;;;;5033560;28;20806;-69
2023/03/03 03:36:05;;;;;;;19.90;12.87;;;0.10;99.90;;;;;;5040888;28;20210;-70
2023/03/03 03:38:32;;;;;;;17.70;12.80;;;0.10;99.90;;;;;;5053475;28;20197;-75
2023/03/03 03:40:58;;;;;;;17.85;12.25;;;0.10;99.90;;;;;;5053498;28;20505;-75
2023/03/03 03:43:24;;;;;;;15.63;11.65;;;0.10;99.90;;;;;;5053319;28;20163;-75
2023/03/03 03:45:50;;;;;;;17.13;12.52;;;0.10;99.90;;;;;;5048830;28;20206;-75
2023/03/03 03:48:18;;;;;;;15.97;12.57;;;0.10;99.90;;;;;;5053292;28;20175;-75
2023/03/03 03:50:44;;;;;;;16.42;11.27;;;0.10;99.90;;;;;;5053359;28;20582;-69
2023/03/03 03:53:10;;;;;;;15.70;11.38;;;0.10;99.90;;;;;;5053174;28;20171;-70
2023/03/03 03:55:35;;;;;;;17.97;12.97;;;0.10;99.90;;;;;;5051154;28;20285;-69
2023/03/03 03:58:01;;;;;;;15.47;10.87;;;0.00;99.90;;;;;;5053184;28;20170;-69
2023/03/03 04:00:27;;;;;;;12.50;10.70;;;0.00;99.90;;;;;;5051890;28;20229;-75
2023/03/03 04:02:52;;;;;;;16.30;10.90;;;0.10;99.90;;;;;;5053255;28;20204;-70
2023/03/03 04:05:18;;;;;;;16.07;11.20;;;0.10;99.90;;;;;;5050080;28;20285;-69
2023/03/03 04:07:44;;;;;;;18.20;13.17;;;0.10;99.90;;;;;;5052999;28;20300;-74
2023/03/03 04:10:10;;;;;;;17.07;12.40;;;0.10;99.90;;;;;;5052291;28;20189;-74
2023/03/03 04:12:38;;;;;;;12.38;10.32;;;0.00;99.90;;;;;;5053252;28;20249;-75
2023/03/03 04:15:12;;;;;;;12.18;10.77;;;0.00;99.90;;;;;;5052036;28;20190;-75
2023/03/03 04:17:39;;;;;;;12.73;10.60;;;0.00;99.90;;;;;;5033864;28;20177;-75
2023/03/03 04:20:06;;;;;;;17.45;14.13;;;-0.10;99.90;;;;;;5033077;28;20168;-75
2023/03/03 04:22:32;;;;;;;18.53;11.50;;;-0.10;99.90;;;;;;5032219;28;20258;-69
2023/03/03 04:25:04;;;;;;;18.77;11.70;;;-0.20;99.90;;;;;;5031688;28;20640;-69
2023/03/03 04:27:34;;;;;;;17.57;12.47;;;-0.20;99.90;;;;;;5044558;28;20291;-70
2023/03/03 04:30:00;;;;;;;16.00;12.70;;;-0.20;99.90;;;;;;5051597;28;20918;-69
2023/03/03 04:32:26;;;;;;;20.33;12.20;;;-0.40;99.90;;;;;;5051990;28;20183;-75
2023/03/03 04:34:52;;;;;;;16.30;11.93;;;-0.40;99.90;;;;;;5051820;28;20183;-75
2023/03/03 04:37:17;;;;;;;19.33;12.25;;;-0.40;99.90;;;;;;5040076;28;20187;-70
2023/03/03 04:39:43;;;;;;;12.77;10.40;;;-0.50;99.90;;;;;;5036679;28;20168;-75
2023/03/03 04:42:09;;;;;;;15.90;10.83;;;-0.50;99.90;;;;;;5036581;28;20171;-75
2023/03/03 04:44:35;;;;;;;23.40;12.60;;;-0.50;99.90;;;;;;5035930;28;20194;-69
2023/03/03 04:47:00;;;;;;;14.30;11.80;;;-0.50;99.90;;;;;;5034621;28;20206;-76
2023/03/03 04:49:26;;;;;;;17.33;11.77;;;-0.40;99.90;;;;;;5046944;28;20183;-75
2023/03/03 04:51:52;;;;;;;12.50;9.97;;;-0.40;99.90;;;;;;5055340;28;20587;-69
2023/03/03 04:54:18;;;;;;;15.00;10.52;;;-0.60;99.90;;;;;;5055548;28;20250;-73
2023/03/03 04:56:44;;;;;;;15.27;10.53;;;-0.80;99.90;;;;;;5048210;28;20293;-69
2023/03/03 04:59:09;;;;;;;14.30;11.50;;;-0.80;99.90;;;;;;5036387;28;20167;-75
2023/03/03 05:01:35;;;;;;;17.40;13.37;;;-0.80;99.90;;;;;;5036406;28;20899;-70
2023/03/03 05:04:01;;;;;;;17.13;10.70;;;-0.70;99.90;;;;;;5036048;28;20206;-75
2023/03/03 05:06:26;;;;;;;19.87;14.20;;;-0.70;99.90;;;;;;5033998;28;20756;-69
2023/03/03 05:08:52;;;;;;;21.37;12.10;;;-0.60;99.90;;;;;;5039984;28;20167;-69
2023/03/03 05:11:18;;;;;;;13.17;10.17;;;-0.60;99.90;;;;;;5056265;28;20246;-69
2023/03/03 05:13:44;;;;;;;15.47;10.43;;;-0.50;99.90;;;;;;5054920;28;20524;-69
2023/03/03 05:16:10;;;;;;;15.90;12.13;;;-0.40;99.90;;;;;;5054969;28;20185;-75
2023/03/03 05:18:36;;;;;;;13.60;10.10;;;-0.40;99.90;;;;;;5054157;28;20669;-70
2023/03/03 05:21:02;;;;;;;13.27;9.70;;;-0.30;99.90;;;;;;5054599;28;20405;-75
2023/03/03 05:23:28;;;;;;;16.60;12.33;;;-0.20;99.90;;;;;;5054586;28;20174;-69
2023/03/03 05:25:53;;;;;;;14.07;11.40;;;-0.10;99.90;;;;;;5053683;28;20198;-75
2023/03/03 05:28:19;;;;;;;11.43;10.20;;;-0.10;99.90;;;;;;5055407;28;20165;-72
2023/03/03 05:30:45;;;;;;;16.53;10.83;;;0.10;99.90;;;;;;5035890;28;20599;-69
2023/03/03 05:33:14;;;;;;;19.87;12.87;;;0.10;99.90;;;;;;5035732;28;20394;-75
2023/03/03 05:35:39;;;;;;;20.73;10.45;;;0.20;99.90;;;;;;5033332;28;20451;-69
2023/03/03 05:38:07;;;;;;;12.17;10.77;;;0.30;99.90;;;;;;5035447;28;20204;-75
2023/03/03 05:40:33;;;;;;;15.43;11.23;;;0.50;99.90;;;;;;5034765;28;20441;-75
2023/03/03 05:42:58;;;;;;;20.17;9.93;;;0.60;99.90;;;;;;5035463;28;20571;-75
2023/03/03 05:45:24;;;;;;;14.00;9.80;;;0.70;99.90;;;;;;5034438;28;20222;-75
2023/03/03 05:47:50;;;;;;;15.90;7.73;;;0.70;99.90;;;;;;5046210;28;20571;-70
2023/03/03 05:50:17;;;;;;;15.68;9.88;;;0.80;99.90;;;;;;5052842;28;20659;-69
2023/03/03 05:52:43;;;;;;;13.77;9.40;;;0.90;99.90;;;;;;5051610;28;20179;-70
2023/03/03 05:55:10;;;;;;;30.00;8.73;;;0.90;99.90;;;;;;5054152;28;20432;-69
2023/03/03 05:57:35;;;;;;;18.20;7.33;;;0.90;99.90;;;;;;5055039;28;20405;-75
2023/03/03 06:00:04;;;;;;;10.30;7.10;;;1.00;99.90;;;;;;5054023;28;20539;-70
2023/03/03 06:02:30;;;;;;;10.17;6.97;;;1.10;99.90;;;;;;5054800;28;20520;-70
2023/03/03 06:04:56;;;;;;;12.20;6.70;;;1.20;99.90;;;;;;5053895;28;20433;-76
2023/03/03 06:07:22;;;;;;;9.37;8.27;;;1.20;99.90;;;;;;5054977;28;20448;-70
2023/03/03 06:09:48;;;;;;;21.83;7.70;;;1.30;99.90;;;;;;5044708;28;20438;-75
2023/03/03 06:12:13;;;;;;;7.87;6.30;;;1.30;99.90;;;;;;5034912;28;20414;-71
2023/03/03 06:14:39;;;;;;;13.10;6.73;;;1.40;99.90;;;;;;5035327;28;20175;-72
2023/03/03 06:17:05;;;;;;;7.17;6.30;;;1.40;99.90;;;;;;5054860;28;20175;-71
2023/03/03 06:19:31;;;;;;;9.47;6.97;;;1.50;99.90;;;;;;5054025;28;20178;-70
2023/03/03 06:21:57;;;;;;;11.40;6.03;;;1.50;99.90;;;;;;5054768;28;20175;-75
2023/03/03 06:24:24;;;;;;;6.40;5.80;;;1.50;99.90;;;;;;5053758;28;20757;-70
2023/03/03 06:26:50;;;;;;;7.67;5.63;;;1.50;99.90;;;;;;5054349;28;20596;-71
2023/03/03 06:29:16;;;;;;;16.63;5.73;;;1.60;1.00;;;;;;5050759;28;20465;-70
2023/03/03 06:31:42;;;;;;;12.97;6.10;;;1.60;1.00;;;;;;5042883;28;20430;-75
2023/03/03 06:34:08;;;;;;;10.60;6.20;;;1.60;1.00;;;;;;5054191;28;20402;-71
2023/03/03 06:36:34;;;;;;;7.93;6.77;;;1.60;1.00;;;;;;5052630;28;20447;-75
2023/03/03 06:38:59;;;;;;;9.33;7.07;;;1.60;1.00;;;;;;5052257;28;20178;-71
2023/03/03 06:41:25;;;;;;;6.37;5.43;;;1.60;1.00;;;;;;5054423;28;20220;-73
2023/03/03 06:43:51;;;;;;;15.00;6.50;;;1.70;1.00;;;;;;5040604;28;20221;-73
2023/03/03 06:46:17;;;;;;;9.83;6.63;;;1.70;1.00;;;;;;5032832;28;20417;-76
2023/03/03 06:48:42;;;;;;;10.40;7.23;;;1.80;1.00;;;;;;5034415;28;20223;-72
2023/03/03 06:51:37;;;;;;;15.87;9.10;;;1.80;1.00;;;;;;5033495;28;20217;-75
2023/03/03 06:54:14;;;;;;;19.90;9.43;;;1.70;1.00;;;;;;5035986;28;20186;-75
2023/03/03 06:56:41;;;;;;;14.60;9.27;;;1.60;1.00;;;;;;5053274;28;20432;-72
2023/03/03 06:59:15;;;;;;;21.90;10.43;;;1.60;1.00;;;;;;5052630;28;20412;-72
2023/03/03 07:01:42;;;;;;;12.30;9.73;;;1.60;1.00;;;;;;5053572;28;20401;-72
2023/03/03 07:04:27;;;;;;;12.83;9.83;;;1.50;1.00;;;;;;5053664;28;20421;-76
2023/03/03 07:06:54;;;;;;;9.67;8.40;;;1.50;1.00;;;;;;5053452;28;20461;-72
2023/03/03 07:09:25;;;;;;;16.20;9.03;;;1.50;1.00;;;;;;5052453;28;20401;-71
2023/03/03 07:11:56;;;;;;;12.67;9.13;;;1.60;1.00;;;;;;5053830;28;20547;-76
2023/03/03 07:14:22;;;;;;;13.87;11.20;;;1.70;1.00;;;;;;5052711;28;20425;-72
2023/03/03 07:16:55;;;;;;;17.83;8.90;;;1.70;1.00;;;;;;5053468;28;20448;-75
2023/03/03 07:19:30;;;;;;;11.20;9.00;;;1.70;1.00;;;;;;5052507;28;20780;-72
2023/03/03 07:21:57;;;;;;;15.77;10.07;;;1.60;1.00;;;;;;5053727;28;20466;-72
2023/03/03 07:24:28;;;;;;;15.57;10.17;;;1.60;1.00;;;;;;5052409;28;20504;-72
2023/03/03 07:27:22;;;;;;;13.10;9.93;;;1.70;1.00;;;;;;5053451;28;20441;-76
2023/03/03 07:29:51;;;;;;;19.63;10.30;;;1.70;1.00;;;;;;5056554;28;20413;-75
2023/03/03 07:32:41;;;;;;;13.37;9.00;;;1.60;1.00;;;;;;5038209;28;20740;-71
2023/03/03 07:35:27;;;;;;;12.20;7.80;;;1.70;1.00;;;;;;5032289;28;20454;-72
2023/03/03 07:37:54;;;;;;;11.70;8.20;;;1.70;1.00;;;;;;5052768;28;20405;-72
2023/03/03 07:40:38;;;;;;;10.90;8.20;;;1.60;1.00;;;;;;5053346;28;20397;-72
2023/03/03 07:43:28;;;;;;;7.63;7.00;;;1.60;1.00;;;;;;5053307;28;20408;-75
2023/03/03 07:46:21;;;;;;;15.50;7.50;;;1.60;1.00;;;;;;5051245;28;21027;-72
2023/03/03 07:48:47;;;;;;;13.07;7.60;;;1.60;1.00;;;;;;5052210;28;20920;-76
2023/03/03 07:51:29;;;;;;;9.90;8.23;;;1.70;1.00;;;;;;5052042;28;20394;-71
2023/03/03 07:54:33;;;;;;;7.50;6.70;;;1.70;1.00;;;;;;5053414;28;20401;-72
2023/03/03 07:57:14;;;;;;;10.33;7.77;;;1.80;1.00;;;;;;5051565;28;20472;-72
2023/03/03 07:59:52;;;;;;;13.40;8.07;;;1.70;1.00;;;;;;5052950;28;20746;-76
2023/03/03 08:02:54;;;;;;;9.03;7.43;;;1.70;1.00;;;;;;5052334;28;20421;-72
2023/03/03 08:05:35;;;;;;;10.93;7.97;;;1.70;1.00;;;;;;5049573;28;20443;-72
2023/03/03 08:08:24;;;;;;;14.63;8.10;;;1.70;1.00;;;;;;5032586;28;20512;-72
2023/03/03 08:10:54;;;;;;;10.80;7.40;;;1.90;1.00;;;;;;5031971;28;21006;-75
2023/03/03 08:13:27;;;;;;;11.63;8.93;;;1.90;1.00;;;;;;5037113;28;20410;-73
2023/03/03 08:16:01;;;;;;;14.13;8.77;;;2.00;1.00;;;;;;5035633;28;20823;-75
2023/03/03 08:18:34;;;;;;;13.17;8.93;;;2.10;1.00;;;;;;5036752;28;20429;-75
2023/03/03 08:21:07;;;;;;;9.70;8.33;;;2.10;1.00;;;;;;5035689;28;20830;-72
2023/03/03 08:23:33;;;;;;;9.53;8.60;;;2.10;1.00;;;;;;5037021;28;20480;-75
2023/03/03 08:25:58;;;;;;;13.60;8.73;;;2.00;1.00;;;;;;5033853;28;20433;-73
2023/03/03 08:28:24;;;;;;;10.77;9.67;;;2.00;1.00;;;;;;5039462;28;20218;-72
2023/03/03 08:30:50;;;;;;;10.53;8.73;;;2.00;1.00;;;;;;5054690;28;20175;-75
2023/03/03 08:33:17;;;;;;;9.63;8.63;;;2.00;1.00;;;;;;5040828;28;20180;-75
2023/03/03 08:35:43;;;;;;;12.10;8.87;;;2.00;1.00;;;;;;5035764;28;20442;-75
2023/03/03 08:38:10;;;;;;;11.90;8.47;;;2.00;1.00;;;;;;5054970;28;20463;-72
2023/03/03 08:40:36;;;;;;;10.73;9.63;;;1.90;1.00;;;;;;5056738;28;20797;-75
2023/03/03 08:43:03;;;;;;;11.27;8.73;;;2.00;1.00;;;;;;5056683;28;20417;-75
2023/03/03 08:45:29;;;;;;;11.80;8.80;;;2.00;1.00;;;;;;5052338;28;20436;-75
2023/03/03 08:47:55;;;;;;;12.17;10.20;;;2.10;1.00;;;;;;5039088;28;20470;-75
2023/03/03 08:50:21;;;;;;;11.07;8.90;;;2.30;1.00;;;;;;5048498;28;20435;-72
2023/03/03 08:52:46;;;;;;;9.10;8.10;;;2.40;1.00;;;;;;5038488;28;20430;-76
2023/03/03 08:55:12;;;;;;;13.67;8.57;;;2.40;1.00;;;;;;5033762;28;20195;-75
2023/03/03 08:57:38;;;;;;;9.83;8.83;;;2.60;1.00;;;;;;5036359;28;20193;-72
2023/03/03 09:00:06;;;;;;;11.33;7.67;;;2.80;1.00;;;;;;5035165;28;20434;-74
2023/03/03 09:02:32;;;;;;;10.50;8.20;;;3.10;1.00;;;;;;5045035;28;20229;-72
2023/03/03 09:04:58;;;;;;;16.13;8.67;;;3.30;1.00;;;;;;5051598;28;20537;-72
2023/03/03 09:07:23;;;;;;;12.77;8.40;;;3.40;1.00;;;;;;5047006;28;20199;-73
2023/03/03 09:09:49;;;;;;;9.57;8.57;;;3.50;1.00;;;;;;5036039;28;20532;-73
2023/03/03 09:12:33;;;;;;;10.90;9.00;;;3.70;1.00;;;;;;5037769;28;20367;-70
2023/03/03 09:15:27;;;;;;;10.00;9.00;;;3.90;1.00;;;;;;5055000;28;20195;-70
2023/03/03 09:17:56;;;;;;;8.50;7.57;;;4.20;1.00;;;;;;5055482;28;20541;-75
2023/03/03 09:20:46;;;;;;;11.60;8.00;;;4.30;1.00;;;;;;5055643;28;20475;-72
2023/03/03 09:23:30;;;;;;;8.60;7.40;;;4.40;1.00;;;;;;5052736;28;20438;-71
2023/03/03 09:25:57;;;;;;;13.70;7.97;;;4.50;1.00;;;;;;5043666;28;20544;-72
2023/03/03 09:28:29;;;;;;;9.37;8.47;;;4.60;1.00;;;;;;5054116;28;20498;-71
2023/03/03 09:30:58;;;;;;;9.03;7.30;;;4.70;1.00;;;;;;5055535;28;20413;-71
2023/03/03 09:33:45;;;;;;;12.40;7.80;;;4.80;1.00;;;;;;5055695;28;20399;-75
2023/03/03 09:36:36;;;;;;;8.53;7.63;;;4.90;1.00;;;;;;5047393;28;20990;-74
2023/03/03 09:39:17;;;;;;;9.40;6.00;;;4.90;1.00;;;;;;5041216;28;20521;-71
2023/03/03 09:42:03;;;;;;;9.50;7.50;;;5.00;1.00;;;;;;5047881;28;20813;-70
2023/03/03 09:45:07;;;;;;;6.47;5.97;;;5.00;1.00;;;;;;5034503;28;20410;-75
2023/03/03 09:48:10;;;;;;;9.07;7.20;;;5.20;1.00;;;;;;5044781;28;20979;-71
2023/03/03 09:51:11;;;;;;;8.20;7.40;;;5.30;1.00;;;;;;5053108;28;20412;-75
2023/03/03 09:53:46;;;;;;;10.87;5.90;;;5.30;1.00;;;;;;5035112;28;20858;-71
2023/03/03 09:56:34;;;;;;;8.10;6.43;;;5.40;1.00;;;;;;5034242;28;20427;-71
2023/03/03 09:59:35;;;;;;;10.40;6.53;;;5.30;1.00;;;;;;5035387;28;20792;-75
2023/03/03 10:02:19;;;;;;;6.73;5.87;;;5.30;1.00;;;;;;5033732;28;20414;-72
2023/03/03 10:04:54;;;;;;;6.60;6.00;;;5.40;99.90;;;;;;5033523;28;20436;-75
2023/03/03 10:07:38;;;;;;;6.67;5.30;;;5.50;99.90;;;;;;5045795;28;20487;-76
2023/03/03 10:10:30;;;;;;;8.00;6.53;;;5.80;99.90;;;;;;5054944;28;20410;-72
2023/03/03 10:12:56;;;;;;;6.53;6.03;;;5.80;99.90;;;;;;5054770;28;20895;-71
2023/03/03 10:15:43;;;;;;;8.20;5.20;;;6.00;99.90;;;;;;5051867;28;20451;-71
2023/03/03 10:18:23;;;;;;;6.23;5.37;;;5.90;99.90;;;;;;5054738;28;20224;-71
2023/03/03 10:21:19;;;;;;;6.43;5.87;;;5.80;99.90;;;;;;5054610;28;20428;-72
2023/03/03 10:24:17;;;;;;;7.70;6.70;;;5.70;99.90;;;;;;5050052;28;20437;-75
2023/03/03 10:27:01;;;;;;;7.73;6.80;;;5.80;99.90;;;;;;5034367;28;20481;-75
2023/03/03 10:29:48;;;;;;;16.57;7.67;;;5.90;99.90;;;;;;5050029;28;20741;-71
2023/03/03 10:32:32;;;;;;;9.87;7.30;;;5.90;99.90;;;;;;5050354;28;20807;-71
2023/03/03 10:35:17;;;;;;;9.87;7.13;;;6.00;99.90;;;;;;5033064;28;20977;-75
2023/03/03 10:38:04;;;;;;;7.10;6.40;;;6.00;99.90;;;;;;5034774;28;20448;-75
2023/03/03 10:40:35;;;;;;;7.83;6.83;;;6.00;99.90;;;;;;5034518;28;20405;-71
2023/03/03 10:43:23;;;;;;;6.13;5.43;;;6.00;99.90;;;;;;5034290;28;20402;-71
2023/03/03 10:46:09;;;;;;;6.57;5.87;;;6.10;99.90;;;;;;5046128;28;20848;-75
2023/03/03 10:48:38;;;;;;;12.37;5.83;;;6.10;99.90;;;;;;5052891;28;20428;-75
2023/03/03 10:51:18;;;;;;;6.40;5.30;;;6.00;99.90;;;;;;5040681;28;20469;-71
2023/03/03 10:53:56;;;;;;;7.13;5.30;;;5.90;99.90;;;;;;5034144;28;20395;-75
2023/03/03 10:56:37;;;;;;;6.00;5.13;;;5.80;99.90;;;;;;5048752;28;20813;-75
2023/03/03 10:59:39;;;;;;;9.07;6.00;;;5.80;99.90;;;;;;5053964;28;20748;-76
2023/03/03 11:02:24;;;;;;;6.47;4.50;;;5.80;99.90;;;;;;5032421;28;20500;-80
2023/03/03 11:05:11;;;;;;;7.17;5.90;;;5.70;99.90;;;;;;5032503;28;20439;-71
2023/03/03 11:08:08;;;;;;;8.17;5.70;;;5.70;99.90;;;;;;5034026;28;21025;-71
2023/03/03 11:11:08;;;;;;;6.77;6.07;;;5.80;99.90;;;;;;5032658;28;20438;-74
2023/03/03 11:13:37;;;;;;;6.47;5.40;;;5.90;99.90;;;;;;5033776;28;20419;-71
2023/03/03 11:16:13;;;;;;;5.97;4.80;;;5.90;99.90;;;;;;5032922;28;20420;-71
2023/03/03 11:18:41;;;;;;;6.37;5.10;;;5.80;99.90;;;;;;5033140;28;20429;-75
2023/03/03 11:21:29;;;;;;;5.00;4.50;;;5.70;99.90;;;;;;5050156;28;20525;-70
2023/03/03 11:24:18;;;;;;;5.33;4.83;;;5.70;99.90;;;;;;5053600;28;20480;-71
2023/03/03 11:26:44;;;;;;;5.10;4.70;;;5.80;99.90;;;;;;5053522;28;20460;-75
2023/03/03 11:29:37;;;;;;;5.63;4.93;;;5.80;99.90;;;;;;5051218;28;20406;-75
2023/03/03 11:32:18;;;;;;;5.87;5.20;;;5.90;99.90;;;;;;5033647;28;20179;-72
2023/03/03 11:34:56;;;;;;;5.20;4.80;;;5.70;99.90;;;;;;5032546;28;20479;-75
2023/03/03 11:37:57;;;;;;;8.57;5.93;;;5.70;99.90;;;;;;5032331;28;20428;-71
2023/03/03 11:40:29;;;;;;;7.10;5.87;;;5.80;99.90;;;;;;5031560;28;20438;-72
2023/03/03 11:43:09;;;;;;;10.50;5.80;;;6.00;99.90;;;;;;5033605;28;20419;-71
2023/03/03 11:45:45;;;;;;;7.20;5.70;;;6.00;99.90;;;;;;5032079;28;20519;-71
2023/03/03 11:48:20;;;;;;;7.73;6.17;;;6.20;99.90;;;;;;5031698;28;20461;-75
2023/03/03 11:50:52;;;;;;;8.43;6.17;;;6.10;99.90;;;;;;5046726;28;20424;-72
2023/03/03 11:53:33;;;;;;;5.83;5.33;;;6.10;99.90;;;;;;5053214;28;20436;-72
2023/03/03 11:56:23;;;;;;;6.70;5.30;;;6.20;99.90;;;;;;5051329;28;20433;-75
2023/03/03 11:59:39;;;;;;;5.70;4.80;;;6.30;99.90;;;;;;5052936;28;20953;-75
2023/03/03 12:02:32;;;;;;;8.93;4.90;;;6.40;99.90;;;;;;5051129;28;20467;-76
2023/03/03 12:05:12;;;;;;;4.93;3.93;;;6.40;99.90;;;;;;5052145;28;20404;-70
2023/03/03 12:07:58;;;;;;;4.30;3.30;;;6.30;99.90;;;;;;5052957;28;20460;-75
2023/03/03 12:10:48;;;;;;;3.43;3.13;;;6.40;99.90;;;;;;5051909;28;20408;-71
2023/03/03 12:13:23;;;;;;;9.73;2.90;;;6.50;99.90;;;;;;5051911;28;20431;-71
2023/03/03 12:16:23;;;;;;;3.43;3.00;;;6.50;99.90;;;;;;5051972;28;20437;-75
2023/03/03 12:19:36;;;;;;;6.87;3.60;;;6.60;99.90;;;;;;5044075;28;20462;-71
2023/03/03 12:22:15;;;;;;;5.87;3.37;;;6.80;99.90;;;;;;5034460;28;20424;-71
2023/03/03 12:25:18;;;;;;;5.20;3.20;;;7.00;99.90;;;;;;5032158;28;20402;-75
2023/03/03 12:28:13;;;;;;;3.73;3.03;;;7.00;99.90;;;;;;5032881;28;20453;-72
2023/03/03 12:30:48;;;;;;;7.03;3.53;;;6.90;99.90;;;;;;5040170;28;20437;-75
2023/03/03 12:33:38;;;;;;;5.50;4.53;;;7.00;99.90;;;;;;5053093;28;20780;-70
2023/03/03 12:36:23;;;;;;;7.00;4.13;;;7.00;99.90;;;;;;5051831;28;20452;-72
2023/03/03 12:39:05;;;;;;;8.27;3.40;;;7.00;99.90;;;;;;5051571;28;20928;-71
2023/03/03 12:41:54;;;;;;;4.60;3.53;;;7.00;99.90;;;;;;5051079;28;20479;-74
2023/03/03 12:44:28;;;;;;;5.27;3.20;;;7.00;99.90;;;;;;5050700;28;20643;-72
2023/03/03 12:46:56;;;;;;;5.27;3.47;;;7.00;99.90;;;;;;5046598;28;20499;-70
2023/03/03 12:49:32;;;;;;;8.67;3.70;;;7.00;99.90;;;;;;5052847;28;20401;-76
2023/03/03 12:52:24;;;;;;;3.17;2.93;;;7.00;99.90;;;;;;5051785;28;20431;-71
2023/03/03 12:55:09;;;;;;;3.13;2.70;;;7.00;99.90;;;;;;5050684;28;20420;-72
2023/03/03 12:57:43;;;;;;;6.37;3.33;;;7.00;99.90;;;;;;5052632;28;20413;-72
2023/03/03 13:00:18;;;;;;;7.53;3.23;;;7.00;99.90;;;;;;5054154;28;20793;-75
2023/03/03 13:02:43;;;;;;;3.57;3.00;;;6.90;99.90;;;;;;5055031;28;20975;-70
2023/03/03 13:05:19;;;;;;;5.40;3.10;;;7.30;99.90;;;;;;5055256;28;20433;-75
2023/03/03 13:07:55;;;;;;;7.37;2.77;;;8.00;99.90;;;;;;5054875;28;20532;-71
2023/03/03 13:10:48;;;;;;;10.13;3.43;;;8.20;99.90;;;;;;5053913;28;20430;-74
2023/03/03 13:13:23;;;;;;;3.23;2.00;;;8.50;91.90;;;;;;5055785;28;20459;-75
2023/03/03 13:16:13;;;;;;;5.87;2.63;;;8.40;91.80;;;;;;5052953;28;20492;-75
2023/03/03 13:19:08;;;;;;;8.60;2.90;;;8.80;87.40;;;;;;5054914;28;20410;-70
2023/03/03 13:21:49;;;;;;;8.03;3.17;;;8.80;57.70;;;;;;5054833;28;20520;-70